Time,TemperatureF,DewpointF,PressureIn,WindDirection,WindDirectionDegrees,WindSpeedMPH,WindSpeedGustMPH,Humidity,HourlyPrecipIn,Conditions,Clouds,dailyrainin,SolarRadiationWatts/m^2,SoftwareType,DateUTC
2013-11-11 00:00:00,36.2,32.7,30.36,South,178,0.0,0.0,87,0.00,,,0.15,0,Wunderground v.1.15,2013-11-11 08:00:00,
2013-11-11 00:10:00,36.5,33.0,30.36,South,178,0.0,0.0,87,0.00,,,0.00,0,Wunderground v.1.15,2013-11-11 08:10:00,
2013-11-11 00:20:00,36.2,32.7,30.36,South,178,0.0,0.0,87,0.00,,,0.00,0,Wunderground v.1.15,2013-11-11 08:20:00,
2013-11-11 00:30:00,36.0,32.2,30.36,South,178,0.0,0.0,86,0.00,,,0.00,0,Wunderground v.1.15,2013-11-11 08:30:00,
2013-11-11 00:40:00,36.2,32.7,30.36,South,178,0.0,0.0,87,0.00,,,0.00,0,Wunderground v.1.15,2013-11-11 08:40:00,
2013-11-11 00:45:00,36.0,32.5,30.36,South,178,0.0,0.0,87,0.00,,,0.00,0,Wunderground v.1.15,2013-11-11 08:45:00,
2013-11-11 00:55:00,36.0,32.2,30.36,South,178,0.0,0.0,86,0.00,,,0.00,0,Wunderground v.1.15,2013-11-11 08:55:00,
2013-11-11 01:00:00,36.2,32.4,30.37,South,178,0.0,0.0,86,0.00,,,0.00,0,Wunderground v.1.15,2013-11-11 09:00:00,
2013-11-11 01:10:00,36.0,32.2,30.37,South,178,0.0,0.0,86,0.00,,,0.00,0,Wunderground v.1.15,2013-11-11 09:10:00,
2013-11-11 01:20:00,36.0,32.5,30.38,South,178,0.0,0.0,87,0.00,,,0.00,0,Wunderground v.1.15,2013-11-11 09:20:00,
2013-11-11 01:25:00,36.0,32.5,30.37,South,178,0.0,0.0,87,0.00,,,0.00,0,Wunderground v.1.15,2013-11-11 09:25:00,
2013-11-11 01:35:00,36.2,32.7,30.38,South,178,0.0,0.0,87,0.00,,,0.00,0,Wunderground v.1.15,2013-11-11 09:35:00,
2013-11-11 01:40:00,36.2,32.4,30.38,South,178,0.0,0.0,86,0.00,,,0.00,0,Wunderground v.1.15,2013-11-11 09:40:00,
2013-11-11 01:50:00,35.9,32.4,30.38,South,178,0.0,0.0,87,0.00,,,0.00,0,Wunderground v.1.15,2013-11-11 09:50:00,
2013-11-11 02:00:00,35.9,32.7,30.38,South,178,0.0,0.0,88,0.00,,,0.00,0,Wunderground v.1.15,2013-11-11 10:00:00,
2013-11-11 02:10:00,35.9,32.7,30.38,South,178,0.0,0.0,88,0.00,,,0.00,0,Wunderground v.1.15,2013-11-11 10:10:00,
2013-11-11 02:20:00,36.0,32.8,30.38,South,178,0.0,0.0,88,0.00,,,0.00,0,Wunderground v.1.15,2013-11-11 10:20:00,
2013-11-11 02:30:00,35.9,32.4,30.39,South,178,0.0,0.0,87,0.00,,,0.00,0,Wunderground v.1.15,2013-11-11 10:30:00,
2013-11-11 02:40:00,35.9,32.4,30.39,South,178,0.0,0.0,87,0.00,,,0.00,0,Wunderground v.1.15,2013-11-11 10:40:00,
2013-11-11 02:50:00,35.8,32.3,30.39,South,178,0.0,0.0,87,0.00,,,0.00,0,Wunderground v.1.15,2013-11-11 10:50:00,
2013-11-11 03:00:00,35.6,32.4,30.39,South,178,0.0,0.0,88,0.00,,,0.00,0,Wunderground v.1.15,2013-11-11 11:00:00,
2013-11-11 03:10:00,35.6,32.4,30.39,South,178,0.0,0.0,88,0.00,,,0.00,0,Wunderground v.1.15,2013-11-11 11:10:00,
2013-11-11 03:20:00,35.9,32.7,30.39,South,178,0.0,0.0,88,0.00,,,0.00,0,Wunderground v.1.15,2013-11-11 11:20:00,
2013-11-11 03:30:00,36.0,32.5,30.40,South,178,0.0,0.0,87,0.00,,,0.00,0,Wunderground v.1.15,2013-11-11 11:30:00,
2013-11-11 03:35:00,35.9,32.4,30.40,South,178,0.0,0.0,87,0.00,,,0.00,0,Wunderground v.1.15,2013-11-11 11:35:00,
2013-11-11 03:45:00,36.0,32.5,30.40,South,178,0.0,0.0,87,0.00,,,0.00,0,Wunderground v.1.15,2013-11-11 11:45:00,
2013-11-11 03:55:00,35.9,32.4,30.40,South,178,0.0,0.0,87,0.00,,,0.00,0,Wunderground v.1.15,2013-11-11 11:55:00,
2013-11-11 04:05:00,35.9,32.4,30.40,South,178,0.0,0.0,87,0.00,,,0.00,0,Wunderground v.1.15,2013-11-11 12:05:00,
2013-11-11 04:15:00,36.0,32.5,30.40,South,178,0.0,0.0,87,0.00,,,0.00,0,Wunderground v.1.15,2013-11-11 12:15:00,
2013-11-11 04:25:00,35.9,32.4,30.40,South,178,0.0,0.0,87,0.00,,,0.00,0,Wunderground v.1.15,2013-11-11 12:25:00,
2013-11-11 04:30:00,35.9,32.4,30.40,South,178,0.0,0.0,87,0.00,,,0.00,0,Wunderground v.1.15,2013-11-11 12:30:00,
2013-11-11 04:35:00,35.9,32.4,30.40,South,178,0.0,0.0,87,0.00,,,0.00,0,Wunderground v.1.15,2013-11-11 12:35:00,
2013-11-11 04:45:00,36.0,32.5,30.40,South,178,0.0,0.0,87,0.00,,,0.00,0,Wunderground v.1.15,2013-11-11 12:45:00,
2013-11-11 04:50:00,36.0,32.5,30.41,South,178,0.0,0.0,87,0.00,,,0.00,0,Wunderground v.1.15,2013-11-11 12:50:00,
2013-11-11 05:00:00,35.6,32.4,30.41,South,178,0.0,0.0,88,0.00,,,0.00,0,Wunderground v.1.15,2013-11-11 13:00:00,
2013-11-11 05:10:00,35.8,32.6,30.41,South,178,0.0,0.0,88,0.00,,,0.00,0,Wunderground v.1.15,2013-11-11 13:10:00,
2013-11-11 05:15:00,35.8,32.3,30.41,South,178,0.0,0.0,87,0.00,,,0.00,0,Wunderground v.1.15,2013-11-11 13:15:00,
2013-11-11 05:20:00,35.6,32.4,30.41,South,178,0.0,0.0,88,0.00,,,0.00,0,Wunderground v.1.15,2013-11-11 13:20:00,
2013-11-11 05:30:00,35.8,32.6,30.41,South,178,0.0,0.0,88,0.00,,,0.00,0,Wunderground v.1.15,2013-11-11 13:30:00,
2013-11-11 05:40:00,35.5,32.3,30.41,South,178,0.0,0.0,88,0.00,,,0.00,0,Wunderground v.1.15,2013-11-11 13:40:00,
2013-11-11 05:50:00,35.5,32.6,30.41,South,178,0.0,0.0,89,0.00,,,0.00,0,Wunderground v.1.15,2013-11-11 13:50:00,
2013-11-11 05:55:00,35.5,32.3,30.41,South,178,0.0,0.0,88,0.00,,,0.00,0,Wunderground v.1.15,2013-11-11 13:55:00,
2013-11-11 06:05:00,35.5,32.6,30.41,South,178,0.0,0.0,89,0.00,,,0.00,0,Wunderground v.1.15,2013-11-11 14:05:00,
2013-11-11 06:15:00,35.6,32.7,30.41,South,178,0.0,0.0,89,0.00,,,0.00,0,Wunderground v.1.15,2013-11-11 14:15:00,
2013-11-11 06:20:00,35.6,32.7,30.41,South,178,0.0,0.0,89,0.00,,,0.00,0,Wunderground v.1.15,2013-11-11 14:20:00,
2013-11-11 06:30:00,35.8,32.9,30.42,South,178,0.0,0.0,89,0.00,,,0.00,0,Wunderground v.1.15,2013-11-11 14:30:00,
2013-11-11 06:40:00,35.6,32.7,30.42,South,178,0.0,0.0,89,0.00,,,0.00,0,Wunderground v.1.15,2013-11-11 14:40:00,
2013-11-11 06:50:00,35.6,32.7,30.43,South,178,0.0,0.0,89,0.00,,,0.00,0,Wunderground v.1.15,2013-11-11 14:50:00,
2013-11-11 07:00:00,35.8,32.9,30.43,South,178,0.0,0.0,89,0.00,,,0.00,0,Wunderground v.1.15,2013-11-11 15:00:00,
2013-11-11 07:10:00,36.0,32.8,30.44,South,178,0.0,0.0,88,0.00,,,0.00,0,Wunderground v.1.15,2013-11-11 15:10:00,
2013-11-11 07:20:00,36.2,33.0,30.44,South,178,0.0,0.0,88,0.00,,,0.00,5,Wunderground v.1.15,2013-11-11 15:20:00,
2013-11-11 07:30:00,36.2,33.0,30.45,South,178,0.0,0.0,88,0.00,,,0.00,11,Wunderground v.1.15,2013-11-11 15:30:00,
2013-11-11 07:40:00,36.5,33.3,30.45,South,178,0.0,0.0,88,0.00,,,0.00,14,Wunderground v.1.15,2013-11-11 15:40:00,
2013-11-11 07:50:00,36.6,33.4,30.45,South,178,0.0,0.0,88,0.00,,,0.00,18,Wunderground v.1.15,2013-11-11 15:50:00,
2013-11-11 08:00:00,36.8,33.3,30.45,South,178,0.0,0.0,87,0.00,,,0.00,21,Wunderground v.1.15,2013-11-11 16:00:00,
2013-11-11 08:10:00,36.6,33.4,30.46,South,178,0.0,0.0,88,0.00,,,0.00,30,Wunderground v.1.15,2013-11-11 16:10:00,
2013-11-11 08:20:00,36.8,33.6,30.46,South,178,0.0,0.0,88,0.00,,,0.00,30,Wunderground v.1.15,2013-11-11 16:20:00,
2013-11-11 08:30:00,37.2,34.0,30.46,South,178,0.0,0.0,88,0.00,,,0.00,44,Wunderground v.1.15,2013-11-11 16:30:00,
2013-11-11 08:40:00,37.5,34.6,30.45,South,178,0.0,0.0,89,0.00,,,0.00,39,Wunderground v.1.15,2013-11-11 16:40:00,
2013-11-11 08:50:00,37.8,34.6,30.45,South,178,0.0,0.0,88,0.00,,,0.00,33,Wunderground v.1.15,2013-11-11 16:50:00,
2013-11-11 09:00:00,37.9,34.7,30.44,South,178,0.0,0.0,88,0.00,,,0.00,32,Wunderground v.1.15,2013-11-11 17:00:00,
2013-11-11 09:10:00,37.9,34.7,30.44,South,178,0.0,0.0,88,0.00,,,0.00,42,Wunderground v.1.15,2013-11-11 17:10:00,
2013-11-11 09:20:00,38.2,35.0,30.45,South,178,0.0,0.0,88,0.00,,,0.00,37,Wunderground v.1.15,2013-11-11 17:20:00,
2013-11-11 09:30:00,38.3,35.1,30.45,South,178,0.0,0.0,88,0.00,,,0.00,44,Wunderground v.1.15,2013-11-11 17:30:00,
2013-11-11 09:40:00,38.2,35.0,30.45,South,178,0.0,0.0,88,0.00,,,0.00,56,Wunderground v.1.15,2013-11-11 17:40:00,
2013-11-11 09:45:00,38.3,35.1,30.45,South,178,0.0,0.0,88,0.00,,,0.00,69,Wunderground v.1.15,2013-11-11 17:45:00,
2013-11-11 09:55:00,38.8,35.6,30.46,South,178,0.0,0.0,88,0.00,,,0.00,77,Wunderground v.1.15,2013-11-11 17:55:00,
2013-11-11 10:05:00,38.9,35.6,30.46,South,178,0.0,0.0,88,0.00,,,0.00,35,Wunderground v.1.15,2013-11-11 18:05:00,
2013-11-11 10:15:00,38.8,35.6,30.45,South,178,0.0,0.0,88,0.00,,,0.00,58,Wunderground v.1.15,2013-11-11 18:15:00,
2013-11-11 10:20:00,38.9,35.6,30.45,South,178,0.0,0.0,88,0.00,,,0.00,60,Wunderground v.1.15,2013-11-11 18:20:00,
2013-11-11 10:30:00,39.3,36.0,30.45,South,178,0.0,0.0,88,0.00,,,0.00,62,Wunderground v.1.15,2013-11-11 18:30:00,
2013-11-11 10:40:00,39.5,36.2,30.45,South,178,0.0,0.0,88,0.00,,,0.00,54,Wunderground v.1.15,2013-11-11 18:40:00,
2013-11-11 10:50:00,39.6,36.3,30.45,South,178,0.0,0.0,88,0.00,,,0.00,49,Wunderground v.1.15,2013-11-11 18:50:00,
2013-11-11 11:00:00,39.8,36.5,30.44,South,178,0.0,0.0,88,0.00,,,0.00,65,Wunderground v.1.15,2013-11-11 19:00:00,
2013-11-11 11:10:00,40.1,36.8,30.44,South,178,0.0,0.0,88,0.00,,,0.00,74,Wunderground v.1.15,2013-11-11 19:10:00,
2013-11-11 11:20:00,40.2,36.9,30.43,South,178,0.0,0.0,88,0.00,,,0.00,60,Wunderground v.1.15,2013-11-11 19:20:00,
2013-11-11 11:30:00,40.5,37.2,30.43,South,178,0.0,0.0,88,0.00,,,0.00,62,Wunderground v.1.15,2013-11-11 19:30:00,
2013-11-11 11:40:00,40.5,36.9,30.43,South,178,0.0,0.0,87,0.00,,,0.00,77,Wunderground v.1.15,2013-11-11 19:40:00,
2013-11-11 11:45:00,40.8,37.2,30.43,South,178,0.0,0.0,87,0.00,,,0.00,98,Wunderground v.1.15,2013-11-11 19:45:00,
2013-11-11 11:50:00,40.9,37.3,30.43,South,178,0.0,0.0,87,0.00,,,0.00,83,Wunderground v.1.15,2013-11-11 19:50:00,
2013-11-11 12:00:00,40.8,37.2,30.43,South,178,0.0,0.0,87,0.00,,,0.00,77,Wunderground v.1.15,2013-11-11 20:00:00,
2013-11-11 12:10:00,40.9,37.3,30.43,South,178,0.0,0.0,87,0.00,,,0.00,79,Wunderground v.1.15,2013-11-11 20:10:00,
2013-11-11 12:15:00,40.8,37.2,30.43,South,178,0.0,0.0,87,0.00,,,0.00,84,Wunderground v.1.15,2013-11-11 20:15:00,
2013-11-11 12:20:00,40.6,37.0,30.43,South,178,0.0,0.0,87,0.00,,,0.00,97,Wunderground v.1.15,2013-11-11 20:20:00,
2013-11-11 12:30:00,40.9,37.6,30.43,South,178,0.0,0.0,88,0.00,,,0.00,132,Wunderground v.1.15,2013-11-11 20:30:00,
2013-11-11 12:35:00,41.3,38.0,30.43,South,178,0.0,0.0,88,0.00,,,0.00,120,Wunderground v.1.15,2013-11-11 20:35:00,
2013-11-11 12:40:00,41.5,37.9,30.42,South,178,0.0,0.0,87,0.00,,,0.00,102,Wunderground v.1.15,2013-11-11 20:40:00,
2013-11-11 12:50:00,41.5,37.6,30.42,South,178,0.0,0.0,86,0.00,,,0.00,111,Wunderground v.1.15,2013-11-11 20:50:00,
2013-11-11 13:00:00,41.5,37.6,30.42,South,178,0.0,0.0,86,0.00,,,0.00,113,Wunderground v.1.15,2013-11-11 21:00:00,
2013-11-11 13:05:00,41.6,37.7,30.42,South,178,0.0,0.0,86,0.00,,,0.00,104,Wunderground v.1.15,2013-11-11 21:05:00,
2013-11-11 13:15:00,41.5,37.6,30.41,South,178,0.0,1.0,86,0.00,,,0.00,84,Wunderground v.1.15,2013-11-11 21:15:00,
2013-11-11 13:20:00,41.3,37.1,30.41,South,178,0.0,0.0,85,0.00,,,0.00,83,Wunderground v.1.15,2013-11-11 21:20:00,
2013-11-11 13:30:00,41.5,37.6,30.41,South,178,0.0,0.0,86,0.00,,,0.00,74,Wunderground v.1.15,2013-11-11 21:30:00,
2013-11-11 13:40:00,41.5,37.6,30.41,South,178,0.0,0.0,86,0.00,,,0.00,49,Wunderground v.1.15,2013-11-11 21:40:00,
2013-11-11 13:45:00,41.5,37.6,30.41,South,178,0.0,0.0,86,0.00,,,0.00,53,Wunderground v.1.15,2013-11-11 21:45:00,
2013-11-11 13:55:00,41.3,37.7,30.41,South,178,0.0,0.0,87,0.00,,,0.00,51,Wunderground v.1.15,2013-11-11 21:55:00,
2013-11-11 14:00:00,41.5,37.9,30.41,South,178,0.0,0.0,87,0.00,,,0.00,56,Wunderground v.1.15,2013-11-11 22:00:00,
2013-11-11 14:10:00,41.6,38.0,30.40,South,178,0.0,0.0,87,0.00,,,0.00,72,Wunderground v.1.15,2013-11-11 22:10:00,
2013-11-11 14:15:00,41.6,38.0,30.40,South,178,0.0,0.0,87,0.00,,,0.00,69,Wunderground v.1.15,2013-11-11 22:15:00,
2013-11-11 14:25:00,42.2,38.3,30.40,South,178,0.0,0.0,86,0.00,,,0.00,79,Wunderground v.1.15,2013-11-11 22:25:00,
2013-11-11 14:35:00,42.5,38.6,30.41,South,178,0.0,0.0,86,0.00,,,0.00,84,Wunderground v.1.15,2013-11-11 22:35:00,
2013-11-11 14:45:00,42.5,38.6,30.41,South,178,0.0,1.0,86,0.00,,,0.00,62,Wunderground v.1.15,2013-11-11 22:45:00,
2013-11-11 14:55:00,42.1,38.5,30.41,South,178,0.0,0.0,87,0.00,,,0.00,42,Wunderground v.1.15,2013-11-11 22:55:00,
2013-11-11 15:05:00,42.2,38.9,30.41,South,178,0.0,0.0,88,0.00,,,0.00,49,Wunderground v.1.15,2013-11-11 23:05:00,
2013-11-11 15:15:00,42.5,39.2,30.41,South,178,0.0,0.0,88,0.00,,,0.00,46,Wunderground v.1.15,2013-11-11 23:15:00,
2013-11-11 15:25:00,42.6,39.0,30.41,South,178,0.0,0.0,87,0.00,,,0.00,33,Wunderground v.1.15,2013-11-11 23:25:00,
2013-11-11 15:35:00,42.3,38.4,30.40,South,178,0.0,0.0,86,0.00,,,0.00,26,Wunderground v.1.15,2013-11-11 23:35:00,
2013-11-11 15:45:00,42.2,38.3,30.40,South,178,0.0,0.0,86,0.00,,,0.00,16,Wunderground v.1.15,2013-11-11 23:45:00,
2013-11-11 15:55:00,42.2,38.3,30.40,South,178,0.0,0.0,86,0.00,,,0.00,11,Wunderground v.1.15,2013-11-11 23:55:00,
2013-11-11 16:05:00,42.2,38.3,30.39,South,178,0.0,0.0,86,0.00,,,0.00,5,Wunderground v.1.15,2013-11-12 00:05:00,
2013-11-11 16:15:00,42.2,38.6,30.39,South,178,0.0,0.0,87,0.00,,,0.00,0,Wunderground v.1.15,2013-11-12 00:15:00,
2013-11-11 16:25:00,42.1,38.5,30.39,South,178,0.0,0.0,87,0.00,,,0.00,0,Wunderground v.1.15,2013-11-12 00:25:00,
2013-11-11 16:35:00,42.1,38.5,30.39,South,178,0.0,0.0,87,0.00,,,0.00,0,Wunderground v.1.15,2013-11-12 00:35:00,
2013-11-11 16:45:00,41.8,38.5,30.39,South,178,0.0,0.0,88,0.00,,,0.00,0,Wunderground v.1.15,2013-11-12 00:45:00,
2013-11-11 16:55:00,41.6,38.3,30.39,South,178,0.0,0.0,88,0.00,,,0.00,0,Wunderground v.1.15,2013-11-12 00:55:00,
2013-11-11 17:05:00,41.5,38.2,30.39,South,178,0.0,0.0,88,0.00,,,0.00,0,Wunderground v.1.15,2013-11-12 01:05:00,
2013-11-11 17:15:00,41.2,37.9,30.40,South,178,0.0,0.0,88,0.00,,,0.00,0,Wunderground v.1.15,2013-11-12 01:15:00,
2013-11-11 17:25:00,41.1,37.8,30.40,South,178,0.0,0.0,88,0.00,,,0.00,0,Wunderground v.1.15,2013-11-12 01:25:00,
2013-11-11 17:35:00,40.8,37.5,30.40,South,178,0.0,0.0,88,0.00,,,0.00,0,Wunderground v.1.15,2013-11-12 01:35:00,
2013-11-11 17:40:00,40.8,37.8,30.40,South,178,0.0,0.0,89,0.00,,,0.00,0,Wunderground v.1.15,2013-11-12 01:40:00,
2013-11-11 17:50:00,40.8,37.5,30.40,South,178,0.0,0.0,88,0.00,,,0.00,0,Wunderground v.1.15,2013-11-12 01:50:00,
2013-11-11 17:55:00,40.9,37.6,30.40,South,178,0.0,0.0,88,0.00,,,0.00,0,Wunderground v.1.15,2013-11-12 01:55:00,
2013-11-11 18:00:00,40.9,37.6,30.40,South,178,0.0,0.0,88,0.00,,,0.00,0,Wunderground v.1.15,2013-11-12 02:00:00,
2013-11-11 18:10:00,40.9,37.6,30.40,South,178,0.0,0.0,88,0.00,,,0.00,0,Wunderground v.1.15,2013-11-12 02:10:00,
2013-11-11 18:15:00,40.8,37.5,30.40,South,178,0.0,0.0,88,0.00,,,0.00,0,Wunderground v.1.15,2013-11-12 02:15:00,
2013-11-11 18:20:00,40.8,37.5,30.40,South,178,0.0,0.0,88,0.00,,,0.00,0,Wunderground v.1.15,2013-11-12 02:20:00,
2013-11-11 18:30:00,40.8,37.2,30.40,South,178,0.0,0.0,87,0.00,,,0.00,0,Wunderground v.1.15,2013-11-12 02:30:00,
2013-11-11 18:35:00,40.6,37.3,30.40,South,178,0.0,0.0,88,0.00,,,0.00,0,Wunderground v.1.15,2013-11-12 02:35:00,
2013-11-11 18:45:00,40.6,37.3,30.41,South,178,0.0,0.0,88,0.00,,,0.00,0,Wunderground v.1.15,2013-11-12 02:45:00,
2013-11-11 18:55:00,40.6,37.0,30.40,South,178,0.0,0.0,87,0.00,,,0.00,0,Wunderground v.1.15,2013-11-12 02:55:00,
2013-11-11 19:00:00,40.3,37.0,30.40,South,178,0.0,0.0,88,0.00,,,0.00,0,Wunderground v.1.15,2013-11-12 03:00:00,
2013-11-11 19:15:00,40.3,37.0,30.40,South,178,0.0,0.0,88,0.00,,,0.00,0,Wunderground v.1.15,2013-11-12 03:15:00,
2013-11-11 19:25:00,40.5,37.2,30.39,South,178,0.0,0.0,88,0.00,,,0.00,0,Wunderground v.1.15,2013-11-12 03:25:00,
2013-11-11 19:35:00,40.5,36.9,30.39,South,178,0.0,0.0,87,0.00,,,0.00,0,Wunderground v.1.15,2013-11-12 03:35:00,
2013-11-11 19:45:00,40.3,37.0,30.39,South,178,0.0,0.0,88,0.00,,,0.00,0,Wunderground v.1.15,2013-11-12 03:45:00,
2013-11-11 19:55:00,40.5,36.9,30.38,South,178,0.0,0.0,87,0.00,,,0.00,0,Wunderground v.1.15,2013-11-12 03:55:00,
2013-11-11 20:05:00,40.2,36.9,30.38,South,178,0.0,0.0,88,0.00,,,0.00,0,Wunderground v.1.15,2013-11-12 04:05:00,
2013-11-11 20:15:00,40.1,36.8,30.37,South,178,0.0,0.0,88,0.00,,,0.00,0,Wunderground v.1.15,2013-11-12 04:15:00,
2013-11-11 20:25:00,40.2,36.9,30.37,South,178,0.0,0.0,88,0.00,,,0.00,0,Wunderground v.1.15,2013-11-12 04:25:00,
2013-11-11 20:35:00,40.1,36.8,30.37,South,178,0.0,0.0,88,0.00,,,0.00,0,Wunderground v.1.15,2013-11-12 04:35:00,
2013-11-11 20:45:00,40.1,36.8,30.38,South,178,0.0,0.0,88,0.00,,,0.00,0,Wunderground v.1.15,2013-11-12 04:45:00,
2013-11-11 20:55:00,40.1,36.8,30.37,South,178,0.0,0.0,88,0.00,,,0.00,0,Wunderground v.1.15,2013-11-12 04:55:00,
2013-11-11 21:05:00,39.8,36.8,30.38,South,178,0.0,0.0,89,0.00,,,0.00,0,Wunderground v.1.15,2013-11-12 05:05:00,
2013-11-11 21:10:00,39.9,36.9,30.38,South,178,0.0,0.0,89,0.00,,,0.00,0,Wunderground v.1.15,2013-11-12 05:10:00,
2013-11-11 21:15:00,39.9,36.9,30.37,South,178,0.0,0.0,89,0.00,,,0.00,0,Wunderground v.1.15,2013-11-12 05:15:00,
2013-11-11 21:20:00,40.1,36.8,30.38,South,178,0.0,0.0,88,0.00,,,0.00,0,Wunderground v.1.15,2013-11-12 05:20:00,
2013-11-11 21:25:00,39.9,36.9,30.37,South,178,0.0,0.0,89,0.00,,,0.00,0,Wunderground v.1.15,2013-11-12 05:25:00,
2013-11-11 21:30:00,39.9,36.9,30.37,South,178,0.0,0.0,89,0.00,,,0.00,0,Wunderground v.1.15,2013-11-12 05:30:00,
2013-11-11 21:40:00,39.8,36.8,30.37,South,178,0.0,0.0,89,0.00,,,0.00,0,Wunderground v.1.15,2013-11-12 05:40:00,
2013-11-11 21:45:00,39.8,36.8,30.37,South,178,0.0,0.0,89,0.00,,,0.00,0,Wunderground v.1.15,2013-11-12 05:45:00,
2013-11-11 21:50:00,39.8,36.8,30.37,South,178,0.0,0.0,89,0.00,,,0.00,0,Wunderground v.1.15,2013-11-12 05:50:00,
2013-11-11 22:00:00,39.8,36.8,30.36,South,178,0.0,0.0,89,0.00,,,0.00,0,Wunderground v.1.15,2013-11-12 06:00:00,
2013-11-11 22:05:00,39.8,36.8,30.36,South,178,0.0,0.0,89,0.00,,,0.00,0,Wunderground v.1.15,2013-11-12 06:05:00,
2013-11-11 22:15:00,39.6,36.6,30.36,South,178,0.0,1.0,89,0.00,,,0.00,0,Wunderground v.1.15,2013-11-12 06:15:00,
2013-11-11 22:25:00,39.8,36.8,30.36,South,178,0.0,0.0,89,0.00,,,0.00,0,Wunderground v.1.15,2013-11-12 06:25:00,
2013-11-11 22:35:00,39.8,36.8,30.35,South,178,0.0,0.0,89,0.00,,,0.00,0,Wunderground v.1.15,2013-11-12 06:35:00,
2013-11-11 22:45:00,39.8,36.5,30.36,South,178,0.0,0.0,88,0.00,,,0.00,0,Wunderground v.1.15,2013-11-12 06:45:00,
2013-11-11 22:55:00,39.6,36.6,30.35,South,178,0.0,0.0,89,0.00,,,0.00,0,Wunderground v.1.15,2013-11-12 06:55:00,
2013-11-11 23:05:00,39.5,36.5,30.34,South,178,0.0,0.0,89,0.00,,,0.00,0,Wunderground v.1.15,2013-11-12 07:05:00,
2013-11-11 23:15:00,39.6,36.6,30.34,South,178,0.0,0.0,89,0.00,,,0.00,0,Wunderground v.1.15,2013-11-12 07:15:00,
2013-11-11 23:25:00,39.6,36.6,30.34,South,178,0.0,0.0,89,0.00,,,0.00,0,Wunderground v.1.15,2013-11-12 07:25:00,
2013-11-11 23:30:00,39.8,36.8,30.34,South,178,0.0,0.0,89,0.00,,,0.00,0,Wunderground v.1.15,2013-11-12 07:30:00,
2013-11-11 23:40:00,39.8,36.8,30.34,South,178,0.0,0.0,89,0.00,,,0.00,0,Wunderground v.1.15,2013-11-12 07:40:00,
2013-11-11 23:50:00,39.9,36.9,30.33,South,178,0.0,0.0,89,0.00,,,0.00,0,Wunderground v.1.15,2013-11-12 07:50:00,